createdAt,value
2022-08-26T00:02:19.393Z,33.29
2022-08-26T00:04:50.904Z,33.30
2022-08-26T00:07:20.733Z,33.29
2022-08-26T00:09:50.279Z,33.26
2022-08-26T00:12:31.532Z,33.24
2022-08-26T00:15:09.787Z,33.23
2022-08-26T00:17:40.348Z,33.22
2022-08-26T00:20:21.089Z,33.20
2022-08-26T00:22:49.863Z,33.19
2022-08-26T00:25:19.472Z,33.17
2022-08-26T00:27:49.193Z,33.16
2022-08-26T00:30:22.723Z,33.16
2022-08-26T00:32:52.925Z,33.15
2022-08-26T00:35:23.852Z,33.13
2022-08-26T00:37:52.580Z,33.12
2022-08-26T00:40:26.077Z,33.12
2022-08-26T00:42:55.437Z,33.09
2022-08-26T00:45:25.012Z,33.08
2022-08-26T00:47:59.278Z,33.07
2022-08-26T00:50:36.899Z,33.06
2022-08-26T00:53:24.110Z,33.06
2022-08-26T00:56:01.074Z,33.04
2022-08-26T00:58:34.027Z,32.99
2022-08-26T01:01:03.487Z,32.95
2022-08-26T01:03:35.532Z,32.92
2022-08-26T01:06:11.464Z,32.90
2022-08-26T01:08:42.287Z,32.85
2022-08-26T01:11:13.225Z,32.82
2022-08-26T01:13:43.515Z,32.80
2022-08-26T01:16:15.966Z,32.78
2022-08-26T01:18:47.790Z,32.75
2022-08-26T01:21:28.302Z,32.72
2022-08-26T01:24:01.015Z,32.69
2022-08-26T01:26:34.578Z,32.67
2022-08-26T01:29:08.629Z,32.65
2022-08-26T01:31:43.638Z,32.63
2022-08-26T01:34:18.547Z,32.62
2022-08-26T01:36:51.938Z,32.61
2022-08-26T01:39:22.347Z,32.59
2022-08-26T01:41:56.853Z,32.56
2022-08-26T01:44:31.567Z,32.55
2022-08-26T01:47:02.518Z,32.54
2022-08-26T01:49:34.791Z,32.54
2022-08-26T01:52:05.979Z,32.53
2022-08-26T01:54:37.405Z,32.52
2022-08-26T01:57:07.844Z,32.50
2022-08-26T01:59:37.126Z,32.48
2022-08-26T02:02:06.401Z,32.46
2022-08-26T02:04:39.453Z,32.46
2022-08-26T02:07:11.084Z,32.44
2022-08-26T02:09:43.726Z,32.43
2022-08-26T02:12:16.398Z,32.42
2022-08-26T02:14:52.213Z,32.41
2022-08-26T02:17:26.032Z,32.39
2022-08-26T02:19:55.513Z,32.36
2022-08-26T02:22:25.464Z,32.34
2022-08-26T02:24:59.203Z,32.32
2022-08-26T02:27:32.798Z,32.30
2022-08-26T02:30:10.015Z,32.29
2022-08-26T02:32:40.191Z,32.24
2022-08-26T02:35:12.890Z,32.25
2022-08-26T02:37:43.148Z,32.24
2022-08-26T02:40:16.539Z,32.23
2022-08-26T02:42:45.381Z,32.18
2022-08-26T02:45:14.290Z,32.15
2022-08-26T02:47:52.703Z,32.12
2022-08-26T02:50:22.765Z,32.10
2022-08-26T02:52:51.551Z,32.08
2022-08-26T02:55:21.928Z,32.06
2022-08-26T02:57:53.642Z,32.02
2022-08-26T03:00:22.796Z,31.99
2022-08-26T03:02:52.961Z,31.95
2022-08-26T03:05:24.859Z,31.92
2022-08-26T03:07:53.957Z,31.89
2022-08-26T03:10:24.642Z,31.87
2022-08-26T03:12:55.478Z,31.83
2022-08-26T03:15:25.285Z,31.83
2022-08-26T03:17:54.430Z,31.80
2022-08-26T03:20:26.639Z,31.78
2022-08-26T03:22:56.887Z,31.74
2022-08-26T03:25:27.784Z,31.72
2022-08-26T03:27:57.579Z,31.70
2022-08-26T03:30:45.425Z,31.68
2022-08-26T03:33:16.626Z,31.63
2022-08-26T03:35:50.485Z,31.62
2022-08-26T03:38:20.794Z,31.61
2022-08-26T03:40:51.699Z,31.59
2022-08-26T03:43:22.401Z,31.56
2022-08-26T03:45:51.648Z,31.54
2022-08-26T03:48:21.486Z,31.52
2022-08-26T03:50:50.469Z,31.50
2022-08-26T03:53:20.643Z,31.48
2022-08-26T03:55:52.007Z,31.45
2022-08-26T03:58:21.965Z,31.41
2022-08-26T04:00:55.653Z,31.41
2022-08-26T04:03:39.221Z,31.39
2022-08-26T04:06:09.158Z,31.36
2022-08-26T04:08:39.095Z,31.35
2022-08-26T04:11:09.450Z,31.35
2022-08-26T04:13:39.292Z,31.33
2022-08-26T04:16:08.900Z,31.32
2022-08-26T04:18:42.095Z,31.30
2022-08-26T04:21:16.157Z,31.29
2022-08-26T04:23:47.633Z,31.28
2022-08-26T04:26:20.012Z,31.26
2022-08-26T04:28:49.603Z,31.24
2022-08-26T04:31:20.295Z,31.22
2022-08-26T04:33:50.999Z,31.20
2022-08-26T04:36:20.464Z,31.18
2022-08-26T04:38:50.738Z,31.19
2022-08-26T04:41:22.365Z,31.17
2022-08-26T04:43:51.524Z,31.14
2022-08-26T04:46:24.493Z,31.14
2022-08-26T04:48:55.192Z,31.12
2022-08-26T04:51:28.156Z,31.10
2022-08-26T04:53:57.654Z,31.07
2022-08-26T04:56:29.960Z,31.06
2022-08-26T04:58:58.776Z,31.04
2022-08-26T05:01:30.431Z,31.01
2022-08-26T05:04:00.130Z,31.00
2022-08-26T05:06:36.882Z,30.99
2022-08-26T05:09:06.604Z,30.97
2022-08-26T05:11:37.344Z,30.94
2022-08-26T05:14:06.941Z,30.94
2022-08-26T05:16:36.461Z,30.91
2022-08-26T05:19:13.832Z,30.90
2022-08-26T05:22:08.475Z,30.85
2022-08-26T05:24:55.872Z,30.81
2022-08-26T05:27:39.310Z,30.77
2022-08-26T05:30:40.541Z,30.74
2022-08-26T05:33:28.264Z,30.71
2022-08-26T05:36:17.723Z,30.71
2022-08-26T05:39:15.294Z,30.69
2022-08-26T05:42:20.715Z,30.66
2022-08-26T05:48:29.592Z,30.63
2022-08-26T05:51:13.610Z,30.62
2022-08-26T05:53:54.553Z,30.61
2022-08-26T05:56:45.872Z,30.62
2022-08-26T05:59:39.948Z,30.63
2022-08-26T06:02:33.843Z,30.63
2022-08-26T06:05:15.399Z,30.61
2022-08-26T06:08:20.271Z,30.60
2022-08-26T06:11:26.054Z,30.58
2022-08-26T06:14:29.272Z,30.57
2022-08-26T06:17:47.570Z,30.55
2022-08-26T06:20:26.874Z,30.52
2022-08-26T06:23:18.138Z,30.52
2022-08-26T06:25:49.232Z,30.51
2022-08-26T06:28:21.755Z,30.52
2022-08-26T06:31:06.227Z,30.50
2022-08-26T06:33:55.977Z,30.45
2022-08-26T06:37:17.362Z,30.39
2022-08-26T06:40:25.248Z,30.40
2022-08-26T06:43:23.099Z,30.40
2022-08-26T06:50:40.528Z,30.38
2022-08-26T06:54:21.869Z,30.37
2022-08-26T07:05:14.287Z,30.26
2022-08-26T07:07:58.331Z,30.26
2022-08-26T07:11:01.969Z,30.27
2022-08-26T07:24:01.445Z,30.18
2022-08-26T07:28:02.877Z,30.15
2022-08-26T07:31:23.107Z,30.15
2022-08-26T07:35:05.008Z,30.18
2022-08-26T07:38:32.442Z,30.21
2022-08-26T07:41:47.816Z,30.26
2022-08-26T07:45:00.019Z,30.24
2022-08-26T07:50:50.098Z,30.27
2022-08-26T07:53:54.324Z,30.25
2022-08-26T08:00:36.911Z,30.22
2022-08-26T08:04:05.350Z,30.20
2022-08-26T08:07:16.265Z,30.21
2022-08-26T08:20:12.345Z,30.26
2022-08-26T08:23:32.394Z,30.27
2022-08-26T08:27:41.612Z,30.25
2022-08-26T08:30:35.086Z,30.26
2022-08-26T08:33:27.012Z,30.27
2022-08-26T08:40:21.262Z,30.26
2022-08-26T08:47:54.602Z,30.29
2022-08-26T08:51:28.224Z,30.28
2022-08-26T08:54:48.660Z,30.27
2022-08-26T09:05:53.537Z,30.20
2022-08-26T09:09:41.968Z,30.13
2022-08-26T10:02:47.742Z,30.21
2022-08-26T10:05:39.847Z,30.25
2022-08-26T10:08:25.911Z,30.27
2022-08-26T10:11:02.861Z,30.30
2022-08-26T10:13:48.171Z,30.30
2022-08-26T10:16:35.379Z,30.28
2022-08-26T10:19:19.638Z,30.28
2022-08-26T10:22:04.962Z,30.30
2022-08-26T10:25:08.038Z,30.33
2022-08-26T10:27:51.163Z,30.33
2022-08-26T10:30:35.941Z,30.33
2022-08-26T10:33:18.145Z,30.35
2022-08-26T10:36:15.286Z,30.36
2022-08-26T10:38:51.697Z,30.36
2022-08-26T10:41:30.588Z,30.44
2022-08-26T10:44:06.659Z,30.46
2022-08-26T10:46:42.481Z,30.51
2022-08-26T10:49:28.033Z,30.53
2022-08-26T10:52:19.698Z,30.51
2022-08-26T10:55:03.116Z,30.50
2022-08-26T10:57:50.201Z,30.49
2022-08-26T11:00:43.987Z,30.53
2022-08-26T11:03:36.420Z,30.51
2022-08-26T11:06:29.126Z,30.49
2022-08-26T11:09:15.900Z,30.47
2022-08-26T11:11:53.761Z,30.46
2022-08-26T11:14:56.224Z,30.47
2022-08-26T11:18:06.616Z,30.47
2022-08-26T11:20:55.074Z,30.49
2022-08-26T11:23:52.956Z,30.50
2022-08-26T11:26:56.173Z,30.51
2022-08-26T11:30:19.555Z,30.50
2022-08-26T11:33:35.169Z,30.47
2022-08-26T11:36:48.768Z,30.44
2022-08-26T11:39:55.033Z,30.43
2022-08-26T11:43:32.166Z,30.44
2022-08-26T11:46:37.548Z,30.45
2022-08-26T11:52:53.370Z,30.49
2022-08-26T11:55:47.744Z,30.49
2022-08-26T11:58:38.963Z,30.53
2022-08-26T12:01:44.682Z,30.58
2022-08-26T12:04:32.421Z,30.57
2022-08-26T12:07:13.497Z,30.57
2022-08-26T12:13:11.058Z,30.56
2022-08-26T12:16:12.666Z,30.57
2022-08-26T12:19:06.618Z,30.56
2022-08-26T12:21:58.781Z,30.58
2022-08-26T12:24:38.716Z,30.60
2022-08-26T12:27:28.867Z,30.63
2022-08-26T12:30:29.272Z,30.65
2022-08-26T12:37:13.114Z,30.68
2022-08-26T12:40:55.748Z,30.67
2022-08-26T12:44:39.074Z,30.67
2022-08-26T12:53:00.750Z,30.63
2022-08-26T13:02:22.092Z,30.60
2022-08-26T13:11:11.397Z,30.55
2022-08-26T13:15:05.609Z,30.58
2022-08-26T13:18:23.573Z,30.62
2022-08-26T13:22:03.634Z,30.64
2022-08-26T13:29:20.195Z,30.61
2022-08-26T13:33:22.057Z,30.61
2022-08-26T13:40:06.261Z,30.61
2022-08-26T13:42:50.095Z,30.60
2022-08-26T13:45:26.296Z,30.60
2022-08-26T13:48:04.071Z,30.58
2022-08-26T13:50:55.375Z,30.57
2022-08-26T13:53:56.510Z,30.53
2022-08-26T13:56:37.759Z,30.53
2022-08-26T13:59:18.153Z,30.55
2022-08-26T14:01:56.205Z,30.57
2022-08-26T14:04:59.101Z,30.58
2022-08-26T14:11:09.992Z,30.59
2022-08-26T14:15:03.858Z,30.57
2022-08-26T14:25:27.225Z,30.53
2022-08-26T14:29:12.375Z,30.53
2022-08-26T14:33:03.596Z,30.49
2022-08-26T14:36:19.650Z,30.45
2022-08-26T14:39:46.635Z,30.41
2022-08-26T14:43:27.181Z,30.34
2022-08-26T14:46:30.944Z,30.35
2022-08-26T14:50:00.751Z,30.37
2022-08-26T14:53:19.081Z,30.35
2022-08-26T14:56:29.461Z,30.36
2022-08-26T14:59:36.042Z,30.36
2022-08-26T15:03:22.505Z,30.34
2022-08-26T15:07:34.041Z,30.32
2022-08-26T15:11:04.497Z,30.31
2022-08-26T15:18:06.709Z,30.24
2022-08-26T15:27:51.636Z,30.27
2022-08-26T15:31:39.056Z,30.23
2022-08-26T15:34:59.429Z,30.21
2022-08-26T15:38:06.680Z,30.19
2022-08-26T15:41:29.748Z,30.18
2022-08-26T15:44:22.100Z,30.18
2022-08-26T15:48:00.648Z,30.19
2022-08-26T15:51:26.147Z,30.15
2022-08-26T15:57:55.133Z,30.13
2022-08-26T16:01:27.715Z,30.11
2022-08-26T16:04:54.140Z,30.04
2022-08-26T16:08:44.058Z,30.00
2022-08-26T16:11:56.111Z,29.96
2022-08-26T16:19:10.368Z,29.89
2022-08-26T16:25:25.856Z,29.88
2022-08-26T16:28:14.255Z,29.90
2022-08-26T16:31:40.331Z,29.88
2022-08-26T16:34:23.123Z,29.86
2022-08-26T16:37:19.870Z,29.83
2022-08-26T16:40:37.562Z,29.79
2022-08-26T16:43:34.707Z,29.75
2022-08-26T16:47:05.258Z,29.76
2022-08-26T16:50:05.218Z,29.76
2022-08-26T16:53:03.679Z,29.75
2022-08-26T16:55:51.870Z,29.71
2022-08-26T16:59:17.498Z,29.68
2022-08-26T17:01:58.466Z,29.68
2022-08-26T17:04:40.063Z,29.67
2022-08-26T17:07:20.601Z,29.68
2022-08-26T17:10:03.978Z,29.67
2022-08-26T17:12:51.792Z,29.65
2022-08-26T17:15:43.229Z,29.66
2022-08-26T17:21:34.374Z,29.63
2022-08-26T17:24:43.434Z,29.64
2022-08-26T17:27:36.928Z,29.64
2022-08-26T17:30:41.613Z,29.65
2022-08-26T17:33:53.206Z,29.62
2022-08-26T17:36:41.514Z,29.55
2022-08-26T17:39:24.791Z,29.51
2022-08-26T17:42:06.374Z,29.47
2022-08-26T17:44:55.611Z,29.49
2022-08-26T17:47:37.603Z,29.48
2022-08-26T17:53:30.217Z,29.48
2022-08-26T17:56:17.567Z,29.49
2022-08-26T17:58:57.799Z,29.50
2022-08-26T18:02:08.577Z,29.53
2022-08-26T18:04:50.575Z,29.54
2022-08-26T18:07:21.943Z,29.57
2022-08-26T18:09:55.473Z,29.60
2022-08-26T18:12:43.567Z,29.63
2022-08-26T18:15:30.090Z,29.63
2022-08-26T18:18:44.849Z,29.62
2022-08-26T18:22:01.297Z,29.60
2022-08-26T18:25:27.436Z,29.57
2022-08-26T18:28:44.127Z,29.55
2022-08-26T18:31:59.665Z,29.54
2022-08-26T18:38:50.387Z,29.48
2022-08-26T18:45:21.589Z,29.53
2022-08-26T18:48:40.080Z,29.55
2022-08-26T18:51:59.054Z,29.55
2022-08-26T18:55:01.858Z,29.53
2022-08-26T18:58:02.711Z,29.51
2022-08-26T19:01:09.954Z,29.51
2022-08-26T19:04:15.876Z,29.49
2022-08-26T19:07:01.337Z,29.48
2022-08-26T19:09:42.211Z,29.48
2022-08-26T19:12:51.979Z,29.46
2022-08-26T19:22:59.658Z,29.28
2022-08-26T19:25:40.322Z,29.26
2022-08-26T19:28:16.899Z,29.28
2022-08-26T19:31:29.128Z,29.27
2022-08-26T19:38:23.311Z,29.23
2022-08-26T20:27:37.687Z,28.76
2022-08-26T20:30:57.060Z,28.75
2022-08-26T20:41:15.980Z,28.68
2022-08-26T20:43:50.899Z,28.68
2022-08-26T20:46:24.855Z,28.66
2022-08-26T20:48:58.333Z,28.65
2022-08-26T20:51:41.277Z,28.66
2022-08-26T20:57:32.010Z,28.63
2022-08-26T21:00:22.995Z,28.61
2022-08-26T21:03:05.141Z,28.57
2022-08-26T21:11:41.025Z,28.45
2022-08-26T21:17:34.127Z,28.46
2022-08-26T21:20:22.285Z,28.44
2022-08-26T21:22:55.440Z,28.41
2022-08-26T21:25:30.473Z,28.40
2022-08-26T21:28:03.304Z,28.40
2022-08-26T21:33:26.639Z,28.40
2022-08-26T21:36:09.623Z,28.41
2022-08-26T21:38:46.259Z,28.41
2022-08-26T21:41:24.046Z,28.39
2022-08-26T21:43:59.556Z,28.39
2022-08-26T21:46:31.914Z,28.38
2022-08-26T21:52:02.779Z,28.32
2022-08-26T21:54:33.934Z,28.29
2022-08-26T21:57:22.255Z,28.27
2022-08-26T21:59:54.514Z,28.22
2022-08-26T22:02:25.371Z,28.20
2022-08-26T22:08:01.063Z,28.19
2022-08-26T22:10:32.943Z,28.12
2022-08-26T22:13:08.683Z,28.11
